world map with BWH marked

BWH - Airport

This information may not be accurate or current and is not valid for navigation or flight planning. No warranty of fitness for any purpose is made or implied.

flag of Penang (Pahang)flag of Malaysia

Donate via PayPal

Additional information is available on the NEW Great Circle Mapper

Location
City:  Butterworth, Penang (Pahang), Malaysia
Name:RMAF Butterworth
ICAO / IATA:WMKB / BWH

Details
Type:Airport (Aerodrome, Airfield)
Use:Military
Latitude:5°27'57"N (5.465917)
Longitude:100°23'28"E (100.391167)
Datum:WGS 1984
Elevation:11 ft (3 m)
Runways:1
Longest:8000 × 150 ft (2438 × 45.5 m)

Time
Timezone:UTC+8 (DST+10)
Local Time:

Weather
METAR:WMKB  041400Z 16005KT 140V200 8000 FEW024 SCT140 BKN280 27/25 Q1012 NOSIG
TAF:WMKB  (expired)

Related Locations
Nearby:
Farthest:SPAB: 12439 mi / 20019 km
Huancabamba, PIU, PE

Find:

   beyond  
but within

Other Information
Maps:
Sources:

  


 


Great Circle Mapper   Great Circle Mapper
Great Circle Mapper FAQ   Great Circle Mapper FAQ
  Karl's Home Page
KLS˛   KLS˛ Home
   GC on Facebook
Airlines of the World   Airlines of the World
Donate via PayPal


Copyright © 2004-2019, Karl L. Swartz. All rights reserved.
All trademarks mentioned herein belong to their respective owners.

Please see credits for attribution and copyright information.

Karl Swartz <karl@kls2.com>
  Powered by FreeBSD
Valid HTML 4.01!
Labeled with ICRA
hCard Microformat
Geo Microformat